Time;durP1;ratioP1;P1;durP2;ratioP2;P2;SDS_P1;SDS_P2;PMS_P1;PMS_P2;Temp;Humidity;BMP_temperature;BMP_pressure;BME280_temperature;BME280_humidity;BME280_pressure;Samples;Min_cycle;Max_cycle;Signal;HPM_P1;HPM_P2
2024/04/15 00:02:17;;;;;;;5.27;3.23;;;;;;;15.96;91.19;95641.66;5522822;26;20299;-88
2024/04/15 00:04:43;;;;;;;11.03;3.20;;;;;;;15.96;90.97;95609.78;5532680;25;20609;-88
2024/04/15 00:07:11;;;;;;;3.30;3.00;;;;;;;15.94;91.46;95627.03;5561505;25;20299;-88
2024/04/15 00:09:37;;;;;;;4.10;3.13;;;;;;;16.02;90.89;95627.38;5532000;25;20555;-88
2024/04/15 00:12:07;;;;;;;4.33;3.10;;;;;;;16.08;90.96;95630.88;5533021;25;20262;-88
2024/04/15 00:14:35;;;;;;;3.30;3.00;;;;;;;16.07;91.27;95629.25;5532235;25;20224;-88
2024/04/15 00:17:05;;;;;;;3.60;2.80;;;;;;;16.08;90.94;95620.25;5531627;25;20738;-88
2024/04/15 00:19:31;;;;;;;3.60;2.60;;;;;;;15.95;90.93;95628.63;5533694;25;20257;-89
2024/04/15 00:22:00;;;;;;;2.53;2.07;;;;;;;16.12;88.42;95613.38;5533480;25;20573;-88
2024/04/15 00:24:25;;;;;;;4.27;2.43;;;;;;;16.08;88.01;95612.28;5533081;25;20266;-88
2024/04/15 00:26:54;;;;;;;2.73;2.43;;;;;;;16.05;87.88;95618.09;5532825;25;20296;-88
2024/04/15 00:29:20;;;;;;;2.67;2.37;;;;;;;16.10;87.58;95618.16;5533078;25;20262;-88
2024/04/15 00:31:51;;;;;;;5.10;2.20;;;;;;;16.19;86.89;95614.78;5533348;25;20227;-88
2024/04/15 00:34:17;;;;;;;2.47;2.17;;;;;;;16.08;86.61;95613.06;5532968;25;20291;-88
2024/04/15 00:36:46;;;;;;;2.50;1.93;;;;;;;15.99;86.54;95616.41;5533499;25;20287;-89
2024/04/15 00:39:11;;;;;;;2.27;2.00;;;;;;;16.06;86.67;95612.50;5534506;25;20760;-88
2024/04/15 00:41:40;;;;;;;5.07;2.03;;;;;;;16.12;84.98;95598.25;5533631;25;20356;-89
2024/04/15 00:44:06;;;;;;;2.30;1.50;;;;;;;16.20;83.59;95595.09;5533457;25;20227;-89
2024/04/15 00:46:35;;;;;;;3.53;1.73;;;;;;;16.27;82.83;95574.44;5534512;25;20262;-88
2024/04/15 00:49:03;;;;;;;3.13;1.70;;;;;;;16.23;83.20;95578.66;5532879;26;20241;-89
2024/04/15 00:51:32;;;;;;;5.80;1.80;;;;;;;16.29;83.50;95568.88;5533235;25;20224;-88
2024/04/15 00:53:58;;;;;;;2.87;1.80;;;;;;;16.21;83.96;95583.44;5531879;25;20223;-89
2024/04/15 00:56:26;;;;;;;2.10;1.60;;;;;;;16.18;85.23;95575.16;5533507;25;20612;-88
2024/04/15 00:58:52;;;;;;;2.33;2.00;;;;;;;16.14;85.65;95582.84;5534709;25;20228;-88
2024/04/15 01:01:21;;;;;;;2.10;1.90;;;;;;;16.05;86.20;95578.25;5533579;25;20628;-89
2024/04/15 01:03:47;;;;;;;3.50;1.93;;;;;;;15.92;86.47;95560.06;5531300;25;20224;-88
2024/04/15 01:06:18;;;;;;;4.10;1.63;;;;;;;15.95;86.29;95570.97;5533002;25;20303;-88
2024/04/15 01:08:44;;;;;;;3.30;1.80;;;;;;;15.86;86.51;95562.69;5529603;25;20703;-88
2024/04/15 01:11:14;;;;;;;2.07;1.70;;;;;;;15.81;86.18;95570.59;5529537;25;20291;-88
2024/04/15 01:13:40;;;;;;;3.57;2.30;;;;;;;15.75;86.75;95560.97;5528777;25;20227;-88
2024/04/15 01:16:09;;;;;;;2.90;2.13;;;;;;;15.78;87.06;95560.47;5529558;25;20296;-88
2024/04/15 01:18:35;;;;;;;2.10;1.83;;;;;;;15.64;87.89;95566.41;5529519;25;20224;-88
2024/04/15 01:21:04;;;;;;;4.20;1.97;;;;;;;15.77;88.50;95564.19;5529137;25;20258;-87
2024/04/15 01:23:36;;;;;;;3.90;1.60;;;;;;;15.78;87.03;95547.19;5528905;25;20261;-88
2024/04/15 01:26:08;;;;;;;2.83;2.10;;;;;;;15.70;87.13;95546.84;5527170;26;20243;-88
2024/04/15 01:28:33;;;;;;;3.13;1.57;;;;;;;15.61;87.10;95543.03;5528744;25;20352;-87
2024/04/15 01:31:02;;;;;;;3.17;1.80;;;;;;;15.64;87.81;95545.19;5527191;26;20243;-88
2024/04/15 01:33:28;;;;;;;3.30;1.87;;;;;;;15.55;87.69;95541.38;5528622;25;20227;-88
2024/04/15 01:35:56;;;;;;;2.23;1.67;;;;;;;15.53;88.13;95548.78;5526570;26;20718;-88
2024/04/15 01:38:22;;;;;;;4.43;1.60;;;;;;;15.47;86.20;95555.91;5526870;26;20281;-88
2024/04/15 01:40:51;;;;;;;3.23;1.80;;;;;;;15.41;87.53;95551.56;5527124;26;20231;-88
2024/04/15 01:43:19;;;;;;;3.00;1.70;;;;;;;15.30;89.17;95549.03;5526799;26;20680;-88
2024/04/15 01:45:48;;;;;;;2.40;1.77;;;;;;;15.35;88.72;95549.91;5528287;25;20327;-88
2024/04/15 01:48:14;;;;;;;3.37;1.90;;;;;;;15.30;89.21;95555.16;5526590;26;20278;-88
2024/04/15 01:50:42;;;;;;;4.57;2.40;;;;;;;15.12;87.00;95542.22;5529693;26;20287;-88
2024/04/15 01:53:11;;;;;;;4.20;2.40;;;;;;;15.10;87.24;95545.09;5528690;25;20273;-88
2024/04/15 01:55:39;;;;;;;3.47;2.17;;;;;;;15.05;87.39;95533.66;5526286;25;20231;-88
2024/04/15 01:58:05;;;;;;;5.43;2.43;;;;;;;15.07;87.19;95535.00;5529367;25;20719;-87
2024/04/15 02:00:37;;;;;;;2.93;2.27;;;;;;;15.03;87.01;95538.38;5526887;26;20258;-88
2024/04/15 02:03:03;;;;;;;5.27;1.90;;;;;;;15.04;86.12;95548.75;5527266;25;20713;-88
2024/04/15 02:05:31;;;;;;;4.77;2.37;;;;;;;14.99;86.31;95553.19;5526331;25;20236;-88
2024/04/15 02:07:57;;;;;;;3.10;1.93;;;;;;;14.84;86.26;95539.75;5528525;25;20283;-88
2024/04/15 02:10:26;;;;;;;3.57;1.97;;;;;;;14.89;85.64;95530.00;5528341;25;20350;-88
2024/04/15 02:12:52;;;;;;;1.90;1.80;;;;;;;14.82;85.16;95539.19;5528255;25;20278;-88
2024/04/15 02:15:21;;;;;;;3.10;2.03;;;;;;;14.85;84.81;95533.38;5527646;25;20756;-88
2024/04/15 02:17:49;;;;;;;5.07;2.20;;;;;;;14.78;84.39;95528.28;5528375;25;20239;-88
2024/04/15 02:20:18;;;;;;;3.07;1.93;;;;;;;14.79;84.14;95537.84;5528163;25;20386;-88
2024/04/15 02:22:44;;;;;;;2.60;1.90;;;;;;;14.78;85.59;95532.75;5527983;25;20269;-88
2024/04/15 02:25:12;;;;;;;3.60;2.37;;;;;;;14.88;85.75;95524.94;5525066;26;20666;-88
2024/04/15 02:27:38;;;;;;;2.23;2.03;;;;;;;14.73;86.69;95530.03;5528365;25;20278;-88
2024/04/15 02:30:10;;;;;;;5.67;2.50;;;;;;;14.61;87.97;95521.44;5528414;25;20284;-88
2024/04/15 02:32:36;;;;;;;4.20;2.03;;;;;;;14.65;87.87;95514.56;5529207;25;20274;-88
2024/04/15 02:35:08;;;;;;;4.63;2.17;;;;;;;14.58;86.56;95511.31;5528457;25;20287;-87
2024/04/15 02:37:34;;;;;;;5.50;1.70;;;;;;;14.38;84.95;95507.31;5528728;25;20274;-88
2024/04/15 02:40:03;;;;;;;3.80;1.90;;;;;;;14.30;84.15;95501.66;5528721;25;20263;-88
2024/04/15 02:42:28;;;;;;;3.00;1.73;;;;;;;14.41;83.98;95492.78;5528730;26;20230;-88
2024/04/15 02:44:57;;;;;;;4.67;1.80;;;;;;;14.13;83.94;95488.41;5528435;25;20228;-88
2024/04/15 02:47:23;;;;;;;3.77;1.90;;;;;;;14.17;83.58;95499.28;5528519;25;20239;-88
2024/04/15 02:49:52;;;;;;;2.13;1.80;;;;;;;14.10;83.47;95504.75;5528093;25;20287;-88
2024/04/15 02:52:21;;;;;;;3.40;1.50;;;;;;;14.31;82.21;95504.06;5528377;25;20352;-88
2024/04/15 02:54:49;;;;;;;2.37;1.50;;;;;;;14.31;81.77;95495.28;5528492;25;20228;-88
2024/04/15 02:57:18;;;;;;;2.40;1.30;;;;;;;14.40;81.30;95486.69;5528190;25;20318;-88
2024/04/15 02:59:44;;;;;;;1.77;1.40;;;;;;;14.36;81.36;95490.06;5528165;25;20224;-88
2024/04/15 03:02:13;;;;;;;6.13;1.97;;;;;;;14.31;81.73;95492.63;5527740;25;20276;-88
2024/04/15 03:04:38;;;;;;;2.10;1.47;;;;;;;14.38;81.41;95490.63;5556305;25;20262;-88
2024/04/15 03:07:07;;;;;;;3.03;1.50;;;;;;;14.38;81.66;95509.16;5530225;25;20751;-88
2024/04/15 03:09:36;;;;;;;3.07;1.70;;;;;;;14.30;82.63;95512.25;5532381;25;20235;-88
2024/04/15 03:12:04;;;;;;;3.73;1.73;;;;;;;14.31;82.36;95522.59;5532278;25;20602;-88
2024/04/15 03:14:31;;;;;;;2.83;1.60;;;;;;;14.34;82.24;95513.34;5529027;26;20703;-88
2024/04/15 03:17:01;;;;;;;2.67;1.47;;;;;;;14.27;83.34;95487.00;5531653;25;20285;-88
2024/04/15 03:19:27;;;;;;;3.20;1.63;;;;;;;14.46;83.40;95477.78;5532682;26;20308;-88
2024/04/15 03:21:56;;;;;;;3.50;1.80;;;;;;;14.50;83.13;95476.22;5532550;25;20238;-88
2024/04/15 03:24:21;;;;;;;5.30;1.80;;;;;;;14.42;83.29;95460.75;5529610;26;20235;-88
2024/04/15 03:26:53;;;;;;;3.63;1.70;;;;;;;14.48;83.36;95480.16;5531359;25;20239;-88
2024/04/15 03:29:18;;;;;;;3.43;1.80;;;;;;;14.44;83.45;95455.22;5532287;25;20278;-88
2024/04/15 03:31:47;;;;;;;3.20;1.60;;;;;;;14.47;83.68;95436.94;5532206;25;20747;-88
2024/04/15 03:34:13;;;;;;;3.67;1.70;;;;;;;14.35;83.47;95425.66;5532794;25;20224;-89
2024/04/15 03:36:42;;;;;;;2.13;1.70;;;;;;;14.25;83.12;95430.00;5531674;26;20302;-88
2024/04/15 03:39:10;;;;;;;0.63;0.63;;;;;;;14.28;75.32;95445.44;5530186;26;20563;-88
2024/04/15 03:41:39;;;;;;;3.53;1.27;;;;;;;14.35;76.71;95446.88;5532339;25;20228;-88
2024/04/15 03:44:08;;;;;;;5.90;1.43;;;;;;;14.27;78.73;95439.31;5531703;25;20308;-88
2024/04/15 03:46:36;;;;;;;3.50;1.37;;;;;;;14.27;80.44;95433.22;5532687;25;20271;-88
2024/04/15 03:49:02;;;;;;;7.60;1.60;;;;;;;14.36;81.45;95431.78;5530348;26;20235;-88
2024/04/15 03:51:31;;;;;;;3.30;1.80;;;;;;;14.40;81.73;95443.47;5531898;25;20352;-88
2024/04/15 03:53:57;;;;;;;2.63;1.60;;;;;;;14.25;83.10;95435.31;5532341;25;20712;-88
2024/04/15 03:56:26;;;;;;;5.17;1.60;;;;;;;14.29;83.05;95425.81;5531745;25;20287;-88
2024/04/15 03:58:52;;;;;;;3.60;1.47;;;;;;;14.19;82.04;95439.72;5530025;26;20231;-88
2024/04/15 04:01:23;;;;;;;3.30;1.70;;;;;;;14.04;82.39;95457.25;5531946;25;20225;-88
2024/04/15 04:03:49;;;;;;;3.53;1.43;;;;;;;14.05;82.06;95454.38;5531726;25;20221;-88
2024/04/15 04:06:18;;;;;;;3.80;1.30;;;;;;;13.89;82.02;95444.59;5530014;26;20581;-88
2024/04/15 04:08:44;;;;;;;2.70;1.20;;;;;;;13.93;81.15;95448.38;5531756;25;20757;-88
2024/04/15 04:11:13;;;;;;;2.80;1.37;;;;;;;13.83;81.36;95449.03;5531685;25;20291;-88
2024/04/15 04:13:39;;;;;;;2.00;1.20;;;;;;;13.80;81.21;95446.06;5504521;25;20392;-88
2024/04/15 04:16:08;;;;;;;3.13;1.17;;;;;;;13.69;81.35;95453.06;5492952;26;20237;-88
2024/04/15 04:18:37;;;;;;;1.30;0.87;;;;;;;13.71;80.64;95456.25;5495616;26;20288;-89
2024/04/15 04:21:12;;;;;;;3.13;1.00;;;;;;;13.64;81.05;95460.09;5495690;26;20228;-89
2024/04/15 04:23:38;;;;;;;1.23;1.07;;;;;;;13.73;80.56;95451.53;5494900;26;20220;-88
2024/04/15 04:26:07;;;;;;;2.67;1.23;;;;;;;13.80;80.55;95448.69;5507466;26;20291;-88
2024/04/15 04:28:33;;;;;;;3.43;1.07;;;;;;;13.91;79.78;95455.75;5530544;26;20248;-88
2024/04/15 04:31:04;;;;;;;1.97;1.10;;;;;;;13.84;79.17;95452.47;5561568;25;20616;-88
2024/04/15 04:33:29;;;;;;;3.37;1.20;;;;;;;13.85;79.62;95452.25;5531945;25;20223;-88
2024/04/15 04:36:01;;;;;;;2.37;1.07;;;;;;;13.81;78.79;95440.53;5532461;25;20270;-89
2024/04/15 04:38:27;;;;;;;2.70;1.10;;;;;;;13.74;79.02;95441.75;5533901;25;20247;-88
2024/04/15 04:40:58;;;;;;;3.80;1.00;;;;;;;13.83;79.14;95427.06;5534720;25;20742;-88
2024/04/15 04:43:24;;;;;;;2.33;1.00;;;;;;;13.81;79.54;95429.94;5533995;25;20228;-88
2024/04/15 04:45:53;;;;;;;1.23;0.80;;;;;;;13.88;79.40;95439.56;5531294;26;20261;-88
2024/04/15 04:48:19;;;;;;;1.73;1.00;;;;;;;13.84;79.37;95449.81;5532703;26;20286;-88
2024/04/15 04:50:47;;;;;;;2.87;1.00;;;;;;;13.80;79.71;95462.75;5531973;26;20231;-88
2024/04/15 04:53:16;;;;;;;1.87;1.03;;;;;;;13.70;79.04;95459.13;5534258;25;20240;-88
2024/04/15 04:55:44;;;;;;;1.67;1.03;;;;;;;13.73;78.59;95453.34;5533411;25;20270;-88
2024/04/15 04:58:10;;;;;;;2.13;1.20;;;;;;;13.78;78.12;95445.50;5534071;25;20239;-89
2024/04/15 05:00:38;;;;;;;2.63;1.10;;;;;;;13.78;77.93;95448.16;5532579;25;20327;-89
2024/04/15 05:03:04;;;;;;;2.23;0.83;;;;;;;13.78;77.11;95483.38;5531415;26;20232;-88
2024/04/15 05:05:36;;;;;;;6.30;1.57;;;;;;;13.79;78.01;95484.97;5531158;26;20275;-87
2024/04/15 05:08:02;;;;;;;2.50;1.00;;;;;;;13.77;77.73;95473.00;5532159;25;20298;-88
2024/04/15 05:10:33;;;;;;;1.87;1.10;;;;;;;13.62;79.88;95483.34;5531503;26;20247;-89
2024/04/15 05:13:03;;;;;;;4.07;1.03;;;;;;;13.31;83.60;95479.38;5532402;25;20239;-88
2024/04/15 05:15:32;;;;;;;1.40;1.27;;;;;;;13.36;83.46;95474.19;5533146;25;20229;-88
2024/04/15 05:17:58;;;;;;;3.83;1.90;;;;;;;13.35;84.62;95474.44;5531896;25;20284;-89
2024/04/15 05:20:26;;;;;;;2.60;1.33;;;;;;;13.25;83.95;95483.00;5530422;26;20232;-89
2024/04/15 05:22:52;;;;;;;3.77;1.60;;;;;;;13.31;85.52;95481.22;5531321;26;20569;-89
2024/04/15 05:25:21;;;;;;;2.80;1.40;;;;;;;13.43;84.38;95482.78;5555270;25;20305;-88
2024/04/15 05:27:49;;;;;;;4.20;1.17;;;;;;;13.25;85.78;95482.19;5516089;25;20252;-88
2024/04/15 05:30:18;;;;;;;3.53;1.40;;;;;;;13.23;84.06;95471.06;5526447;26;20236;-89
2024/04/15 05:32:44;;;;;;;3.47;1.47;;;;;;;13.35;84.71;95464.63;5525742;26;20232;-88
2024/04/15 05:35:13;;;;;;;3.30;1.50;;;;;;;13.33;84.45;95476.50;5508784;26;20666;-88
2024/04/15 05:37:38;;;;;;;1.97;1.43;;;;;;;13.24;83.82;95468.16;5514763;26;20297;-88
2024/04/15 05:40:09;;;;;;;2.73;1.57;;;;;;;13.34;84.22;95462.25;5513805;26;20279;-88
2024/04/15 05:42:35;;;;;;;1.53;1.17;;;;;;;13.12;84.11;95476.16;5512426;25;20275;-88
2024/04/15 05:45:07;;;;;;;1.30;1.17;;;;;;;13.22;85.39;95477.38;5514234;26;20552;-88
2024/04/15 05:47:33;;;;;;;2.50;1.30;;;;;;;13.27;86.23;95467.69;5511496;26;20846;-88
2024/04/15 05:50:02;;;;;;;2.93;1.30;;;;;;;13.35;86.28;95448.75;5506003;25;20296;-87
2024/04/15 05:52:27;;;;;;;4.40;1.60;;;;;;;13.32;85.09;95449.25;5499887;26;20248;-88
2024/04/15 05:54:56;;;;;;;2.07;1.27;;;;;;;13.29;85.32;95452.38;5499794;26;20298;-88
2024/04/15 05:57:22;;;;;;;1.50;1.20;;;;;;;13.26;85.33;95455.50;5505970;26;20296;-88
2024/04/15 05:59:50;;;;;;;3.63;1.40;;;;;;;13.16;86.10;95469.34;5492201;26;20280;-87
2024/04/15 06:02:19;;;;;;;2.77;1.23;;;;;;;13.33;86.14;95468.56;5502141;26;20258;-88
2024/04/15 06:04:49;;;;;;;3.13;1.30;;;;;;;13.18;86.10;95481.53;5490634;26;20712;-88
2024/04/15 06:07:15;;;;;;;3.53;1.37;;;;;;;13.09;85.76;95483.75;5506672;26;20245;-87
2024/04/15 06:09:43;;;;;;;3.20;1.50;;;;;;;13.25;86.39;95490.13;5519609;25;20372;-88
2024/04/15 06:12:09;;;;;;;1.57;1.40;;;;;;;13.31;85.09;95486.50;5511160;25;20235;-88
2024/04/15 06:14:38;;;;;;;1.73;1.20;;;;;;;13.22;85.99;95495.88;5496435;26;20626;-88
2024/04/15 06:17:07;;;;;;;1.73;1.63;;;;;;;13.21;86.20;95496.94;5503504;25;20243;-88
2024/04/15 06:19:35;;;;;;;2.97;1.43;;;;;;;13.24;85.64;95502.53;5517879;25;20289;-87
2024/04/15 06:22:04;;;;;;;3.40;1.50;;;;;;;13.14;85.13;95486.47;5516959;26;20243;-88
2024/04/15 06:24:30;;;;;;;3.60;2.20;;;;;;;13.16;86.23;95474.63;5508240;26;20736;-88
2024/04/15 06:26:59;;;;;;;6.77;1.77;;;;;;;13.21;87.18;95460.69;5500835;26;20349;-87
2024/04/15 06:29:25;;;;;;;1.73;1.40;;;;;;;13.31;86.05;95463.53;5515196;26;20266;-88
2024/04/15 06:31:54;;;;;;;4.77;1.97;;;;;;;13.24;85.16;95470.81;5508581;26;20303;-88
2024/04/15 06:34:21;;;;;;;1.90;1.30;;;;;;;13.42;85.79;95460.00;5493406;26;20245;-88
2024/04/15 06:36:53;;;;;;;2.57;2.00;;;;;;;13.49;86.57;95455.34;5493398;26;20256;-88
2024/04/15 06:39:19;;;;;;;2.33;1.60;;;;;;;13.49;85.58;95457.22;5492376;26;20236;-87
2024/04/15 06:41:47;;;;;;;3.30;1.70;;;;;;;13.50;85.16;95464.91;5490103;26;20342;-91
2024/04/15 06:44:14;;;;;;;4.47;1.73;;;;;;;13.31;85.47;95452.13;5458422;26;20276;-88
2024/04/15 06:46:42;;;;;;;4.50;2.00;;;;;;;13.20;85.43;95447.72;5489123;26;20320;-88
2024/04/15 06:49:08;;;;;;;2.10;1.60;;;;;;;13.21;86.27;95450.09;5491533;26;20538;-88
2024/04/15 06:51:37;;;;;;;4.60;1.73;;;;;;;13.31;85.91;95452.13;5491744;26;20292;-88
2024/04/15 06:54:06;;;;;;;4.50;1.47;;;;;;;13.40;85.65;95448.84;5490692;26;20596;-88
2024/04/15 06:56:34;;;;;;;2.17;1.43;;;;;;;13.37;85.17;95467.06;5491154;26;20232;-88
2024/04/15 06:59:00;;;;;;;3.90;1.80;;;;;;;13.33;85.94;95457.97;5489030;26;20316;-88
2024/04/15 07:01:29;;;;;;;3.40;1.60;;;;;;;13.56;85.00;95458.66;5490785;26;20229;-88
2024/04/15 07:03:56;;;;;;;7.97;2.67;;;;;;;13.48;85.51;95466.19;5490122;26;20266;-88
2024/04/15 07:06:25;;;;;;;3.83;2.07;;;;;;;13.43;85.28;95463.44;5489670;26;20267;-88
2024/04/15 07:08:50;;;;;;;5.73;2.37;;;;;;;13.54;84.32;95465.22;5490780;26;20232;-88
2024/04/15 07:11:22;;;;;;;4.10;2.10;;;;;;;13.48;82.95;95474.94;5494857;26;20762;-88
2024/04/15 07:13:48;;;;;;;4.10;1.83;;;;;;;13.50;83.21;95477.34;5492395;26;20233;-88
2024/04/15 07:16:16;;;;;;;3.47;1.70;;;;;;;13.38;82.56;95473.94;5495168;26;20288;-88
2024/04/15 07:18:42;;;;;;;4.77;2.53;;;;;;;13.38;83.51;95466.00;5494882;26;20571;-88
2024/04/15 07:21:11;;;;;;;3.73;1.83;;;;;;;13.32;83.24;95461.69;5495450;26;20273;-87
2024/04/15 07:23:37;;;;;;;6.60;1.80;;;;;;;13.43;83.29;95474.03;5492015;26;20262;-88
2024/04/15 07:26:06;;;;;;;2.20;1.87;;;;;;;13.44;83.26;95471.13;5492722;26;20233;-88
2024/04/15 07:28:35;;;;;;;5.10;1.67;;;;;;;13.54;82.91;95467.88;5502379;26;20794;-87
2024/04/15 07:31:05;;;;;;;3.90;2.27;;;;;;;13.59;82.80;95462.66;5503965;26;20267;-87
2024/04/15 07:33:30;;;;;;;5.67;1.87;;;;;;;13.71;83.45;95461.56;5493354;26;20270;-88
2024/04/15 07:36:00;;;;;;;4.80;2.13;;;;;;;13.88;82.69;95450.97;5492161;26;20576;-88
2024/04/15 07:38:26;;;;;;;3.37;1.70;;;;;;;13.84;81.99;95444.53;5491098;26;20248;-88
2024/04/15 07:40:55;;;;;;;5.33;2.00;;;;;;;13.84;83.17;95437.38;5495295;26;20309;-87
2024/04/15 07:43:21;;;;;;;2.83;2.60;;;;;;;13.93;81.83;95431.69;5495257;26;20228;-87
2024/04/15 07:45:52;;;;;;;4.20;2.10;;;;;;;13.80;82.81;95441.56;5494654;26;20266;-86
2024/04/15 07:48:18;;;;;;;6.70;2.23;;;;;;;13.60;83.55;95443.09;5493118;26;20278;-88
2024/04/15 07:50:47;;;;;;;3.73;1.60;;;;;;;13.86;85.13;95416.75;5492287;26;20276;-87
2024/04/15 07:53:13;;;;;;;5.27;2.17;;;;;;;13.78;83.75;95422.47;5497323;26;20225;-87
2024/04/15 07:55:45;;;;;;;5.43;2.13;;;;;;;13.76;84.49;95415.81;5497143;26;20602;-87
2024/04/15 07:58:11;;;;;;;11.00;2.83;;;;;;;13.79;85.30;95407.41;5497844;26;20237;-87
2024/04/15 08:00:40;;;;;;;3.90;2.20;;;;;;;13.95;84.74;95409.22;5495510;26;20774;-87
2024/04/15 08:03:09;;;;;;;3.03;1.73;;;;;;;14.04;84.53;95412.25;5497442;26;20666;-87
2024/04/15 08:05:37;;;;;;;4.27;1.90;;;;;;;14.18;83.48;95409.00;5498236;26;20228;-87
2024/04/15 08:08:04;;;;;;;3.50;2.40;;;;;;;14.13;82.96;95416.88;5498197;25;20575;-86
2024/04/15 08:10:33;;;;;;;6.20;2.27;;;;;;;14.01;83.30;95420.66;5498249;26;20599;-87
2024/04/15 08:12:59;;;;;;;8.83;3.03;;;;;;;14.18;84.49;95403.72;5496161;26;20265;-87
2024/04/15 08:15:30;;;;;;;12.77;10.37;;;;;;;14.18;83.71;95403.72;5497973;26;20224;-87
2024/04/15 08:17:57;;;;;;;5.60;3.23;;;;;;;14.08;82.43;95394.81;5497983;26;20273;-87
2024/04/15 08:20:28;;;;;;;4.70;2.87;;;;;;;14.19;83.92;95392.06;5495961;26;20305;-87
2024/04/15 08:22:54;;;;;;;11.23;2.57;;;;;;;14.38;85.04;95381.97;5498358;26;20271;-87
2024/04/15 08:25:23;;;;;;;5.53;2.43;;;;;;;14.30;84.72;95377.13;5497840;26;20224;-87
2024/04/15 08:27:49;;;;;;;5.13;2.17;;;;;;;14.31;84.73;95379.53;5495276;26;20713;-88
2024/04/15 08:30:19;;;;;;;5.80;2.27;;;;;;;14.45;84.20;95375.44;5498089;26;20229;-87
2024/04/15 08:32:45;;;;;;;4.03;1.80;;;;;;;14.29;84.63;95376.28;5499010;26;20232;-87
2024/04/15 08:35:14;;;;;;;7.67;2.07;;;;;;;14.48;84.04;95376.81;5497609;26;20305;-88
2024/04/15 08:37:42;;;;;;;2.57;1.80;;;;;;;14.62;82.58;95383.34;5498411;26;20569;-87
2024/04/15 08:40:11;;;;;;;4.63;2.10;;;;;;;14.63;83.05;95384.13;5498925;26;20229;-86
2024/04/15 08:42:41;;;;;;;3.33;1.80;;;;;;;14.80;83.35;95366.28;5498871;26;20223;-87
2024/04/15 08:45:10;;;;;;;4.63;1.87;;;;;;;14.89;82.74;95357.63;5496833;26;20292;-87
2024/04/15 08:47:36;;;;;;;4.07;1.93;;;;;;;15.14;82.41;95352.56;5497125;26;20237;-88
2024/04/15 08:50:07;;;;;;;4.00;2.43;;;;;;;15.04;82.60;95364.94;5505625;26;20287;-87
2024/04/15 08:52:33;;;;;;;4.23;2.50;;;;;;;15.05;80.63;95362.00;5526582;26;20275;-87
2024/04/15 08:55:05;;;;;;;5.00;1.80;;;;;;;15.00;80.00;95363.84;5498123;26;20224;-87
2024/04/15 08:57:31;;;;;;;3.23;2.00;;;;;;;14.88;80.83;95366.66;5498171;26;20239;-87
2024/04/15 09:00:00;;;;;;;2.10;1.47;;;;;;;14.84;81.33;95364.75;5499870;26;20224;-87
2024/04/15 09:02:27;;;;;;;4.97;1.90;;;;;;;14.90;80.96;95347.81;5496870;26;20236;-87
2024/04/15 09:04:56;;;;;;;3.33;1.87;;;;;;;14.99;81.27;95348.97;5496390;26;20717;-87
2024/04/15 09:07:22;;;;;;;2.30;1.83;;;;;;;14.81;79.97;95351.97;5497909;26;20243;-87
2024/04/15 09:09:51;;;;;;;3.90;1.90;;;;;;;15.06;80.32;95349.56;5496502;26;20689;-87
2024/04/15 09:12:19;;;;;;;3.13;1.80;;;;;;;14.86;80.03;95355.50;5497308;26;20232;-87
2024/04/15 09:14:48;;;;;;;5.30;3.07;;;;;;;14.97;80.28;95357.19;5497488;26;20273;-87
2024/04/15 09:17:15;;;;;;;3.60;1.70;;;;;;;15.21;79.06;95347.84;5498310;26;20278;-88
2024/04/15 09:19:45;;;;;;;2.97;1.80;;;;;;;15.45;78.32;95348.31;5498123;26;20286;-88
2024/04/15 09:22:11;;;;;;;3.00;1.53;;;;;;;15.55;79.15;95336.97;5499286;26;20325;-89
2024/04/15 09:24:40;;;;;;;4.10;2.03;;;;;;;15.51;76.45;95333.22;5499393;26;20292;-88
2024/04/15 09:27:06;;;;;;;5.67;1.90;;;;;;;15.63;76.50;95334.66;5498464;26;20240;-87
2024/04/15 09:29:38;;;;;;;1.60;1.47;;;;;;;15.66;75.46;95331.47;5496227;26;20779;-87
2024/04/15 09:32:05;;;;;;;5.10;1.83;;;;;;;15.49;76.58;95317.56;5497270;26;20236;-86
2024/04/15 09:34:33;;;;;;;6.83;1.90;;;;;;;15.55;76.95;95319.19;5496415;26;20248;-87
2024/04/15 09:36:59;;;;;;;2.97;1.50;;;;;;;15.76;76.14;95309.47;5497661;26;20259;-87
2024/04/15 09:39:27;;;;;;;2.70;1.50;;;;;;;15.70;75.41;95308.69;5497086;26;20264;-87
2024/04/15 09:41:54;;;;;;;2.87;1.53;;;;;;;15.61;75.64;95312.84;5498939;26;20287;-87
2024/04/15 09:44:23;;;;;;;2.17;1.33;;;;;;;15.68;75.24;95308.09;5496501;26;20288;-86
2024/04/15 09:46:51;;;;;;;3.80;1.20;;;;;;;15.49;74.51;95306.16;5499247;26;20232;-86
2024/04/15 09:49:20;;;;;;;3.17;1.53;;;;;;;15.74;75.89;95308.94;5498237;26;20646;-87
2024/04/15 09:51:46;;;;;;;1.50;1.20;;;;;;;15.74;74.90;95295.66;5496647;26;20229;-87
2024/04/15 09:54:16;;;;;;;4.83;1.77;;;;;;;15.62;73.86;95295.88;5493556;26;20319;-86
2024/04/15 09:56:42;;;;;;;4.60;1.30;;;;;;;15.66;73.88;95298.81;5492813;26;20306;-86
2024/04/15 09:59:11;;;;;;;6.90;3.23;;;;;;;15.45;74.12;95305.84;5494032;26;20236;-86
2024/04/15 10:01:38;;;;;;;3.10;2.07;;;;;;;15.20;74.31;95295.03;5497093;26;20278;-87
2024/04/15 10:04:12;;;;;;;4.57;3.33;;;;;;;15.45;73.74;95287.25;5495955;26;20313;-87
2024/04/15 10:06:39;;;;;;;7.10;2.33;;;;;;;15.65;73.53;95287.41;5495344;26;20243;-87
2024/04/15 10:09:08;;;;;;;3.67;1.90;;;;;;;15.46;73.15;95286.22;5498692;26;20236;-86
2024/04/15 10:11:34;;;;;;;20.60;2.00;;;;;;;15.45;74.22;95273.22;5497009;26;20316;-87
2024/04/15 10:14:03;;;;;;;2.33;0.97;;;;;;;15.39;73.15;95271.53;5500259;26;20251;-85
2024/04/15 10:16:29;;;;;;;2.97;1.40;;;;;;;15.27;74.57;95281.53;5512772;26;20266;-86
2024/04/15 10:19:01;;;;;;;3.60;1.70;;;;;;;15.30;75.78;95283.69;5507233;25;20241;-87
2024/04/15 10:21:29;;;;;;;1.30;1.20;;;;;;;15.49;74.02;95264.47;5517227;26;20247;-87
2024/04/15 10:23:58;;;;;;;3.27;1.37;;;;;;;15.43;74.09;95262.81;5522267;25;20281;-87
2024/04/15 10:26:26;;;;;;;3.40;1.43;;;;;;;15.44;73.58;95258.31;5504245;26;20281;-86
2024/04/15 10:29:14;;;;;;;6.23;1.63;;;;;;;15.36;72.67;95270.19;5505675;25;20240;-86
2024/04/15 10:31:40;;;;;;;2.93;1.13;;;;;;;15.51;73.41;95258.91;5512695;25;20240;-86
2024/04/15 10:34:09;;;;;;;3.10;1.70;;;;;;;15.48;73.57;95254.09;5512005;26;20301;-87
2024/04/15 10:36:42;;;;;;;2.17;1.50;;;;;;;15.46;73.34;95246.41;5512317;26;20280;-86
2024/04/15 10:39:17;;;;;;;3.23;1.63;;;;;;;15.68;73.79;95244.38;5503863;26;20234;-86
2024/04/15 10:41:43;;;;;;;3.67;1.83;;;;;;;15.78;73.08;95243.63;5501038;26;20248;-86
2024/04/15 10:44:11;;;;;;;4.73;2.20;;;;;;;15.76;72.67;95240.44;5500183;26;20592;-86
2024/04/15 10:46:38;;;;;;;5.47;1.67;;;;;;;15.77;71.87;95234.09;5503028;26;20568;-87
2024/04/15 10:49:07;;;;;;;3.37;1.50;;;;;;;15.73;71.58;95228.47;5513471;25;20299;-87
2024/04/15 10:51:33;;;;;;;5.13;1.70;;;;;;;15.69;72.32;95229.25;5494892;26;20240;-86
2024/04/15 10:54:04;;;;;;;2.93;1.67;;;;;;;15.71;70.85;95216.50;5521350;26;20314;-86
2024/04/15 10:56:30;;;;;;;3.53;1.60;;;;;;;15.72;71.12;95224.25;5511298;25;20261;-87
2024/04/15 10:58:58;;;;;;;3.43;1.60;;;;;;;15.82;70.14;95195.06;5512239;25;20288;-86
2024/04/15 11:01:24;;;;;;;3.63;1.90;;;;;;;15.84;70.38;95200.94;5499940;26;20282;-86
2024/04/15 11:03:53;;;;;;;4.73;1.83;;;;;;;16.12;69.24;95185.59;5491585;26;20236;-86
2024/04/15 11:06:19;;;;;;;5.57;1.70;;;;;;;16.14;69.32;95178.94;5530093;25;20274;-87
2024/04/15 11:08:47;;;;;;;1.50;1.30;;;;;;;16.31;68.46;95168.09;5527220;26;20381;-86
2024/04/15 11:11:16;;;;;;;3.13;1.37;;;;;;;16.15;68.64;95174.44;5529469;25;20600;-86
2024/04/15 11:13:44;;;;;;;2.93;1.60;;;;;;;16.02;67.59;95161.66;5529081;25;20334;-86
2024/04/15 11:16:11;;;;;;;10.40;2.03;;;;;;;15.98;68.43;95166.69;5528217;25;20277;-87
2024/04/15 11:18:40;;;;;;;3.80;1.57;;;;;;;15.64;70.29;95171.63;5529036;26;20319;-86
2024/04/15 11:21:06;;;;;;;3.67;1.73;;;;;;;15.66;70.23;95169.50;5529405;25;20557;-87
2024/04/15 11:23:35;;;;;;;4.73;1.60;;;;;;;15.59;70.61;95170.81;5529209;25;20723;-86
2024/04/15 11:26:01;;;;;;;3.47;1.73;;;;;;;15.65;71.02;95159.97;5529177;26;20572;-85
2024/04/15 11:28:32;;;;;;;7.23;1.87;;;;;;;15.75;70.80;95149.34;5532070;26;20247;-87
2024/04/15 11:30:58;;;;;;;4.87;1.37;;;;;;;15.52;71.12;95154.34;5533525;25;20227;-86
2024/04/15 11:33:27;;;;;;;14.27;1.60;;;;;;;15.55;70.77;95151.94;5535113;25;20300;-85
2024/04/15 11:35:53;;;;;;;3.17;1.37;;;;;;;15.52;71.15;95144.50;5533595;26;20699;-86
2024/04/15 11:38:22;;;;;;;8.63;1.47;;;;;;;15.46;71.27;95142.09;5534085;25;20308;-86